Terminal Aerodrome Forecast
Issued by NWS Wilmington, OH

Current Version | Previous Version | Graphics & Text | Print | Product List | Glossary On
Versions: 1 2 3 4 5 6 7 8 9 10 11 12 13 14 15
000
FTUS41 KILN 242333
TAFDAY
TAF
KDAY 242333Z 2500/2524 28007KT P6SM SCT250
     FM250800 24006KT P6SM FEW250
     FM251400 27012KT P6SM FEW250
     FM251600 27014G24KT P6SM SCT050=

USA.gov is the U.S. government's official web portal to all federal, state and local government web resources and services.